Latest Weather Observations for Kiama

IDN60801

Issued at 6:05 pm EST Sunday 31 August 2014 (issued every 30 minutes, with the page automatically refreshed every 10 minutes)

About weather observations | Map of weather stations | Latest weather observations for NSW | Other Formats
Station Details ID: 068242 Name: KIAMA (BOMBO HEADLAND) Lat: -34.65 Lon: 150.86 Height: 15.5 m
Data from the previous 72 hours. | See also: Recent months at Kiama
Date/Time
EST
Temp
°C
App
Temp
°C
Dew
Point
Rel
Hum
%
Delta-T
°C
Wind Press
QNH
hPa
Press
MSL
hPa
Rain
since 9 am
mm
Dir
 
Spd
km/h
Gust
km/h
Spd
kts
Gust
kts
31/06:00pm 15.5 14.7 11.1 75 2.3 N 6 9 3 5 - - 0.0
31/05:30pm 16.2 15.4 11.2 72 2.7 NNE 6 9 3 5 - - 0.0
31/05:00pm 17.3 16.7 11.8 70 3.0 NNE 6 7 3 4 - - 0.0
31/04:30pm 17.9 17.7 11.7 67 3.4 NE 4 7 2 4 - - 0.0
31/04:00pm 18.3 17.5 11.8 66 3.6 E 7 9 4 5 - - 0.0
31/03:30pm 18.2 17.3 11.3 64 3.8 E 7 9 4 5 - - 0.0
31/03:00pm 18.4 17.8 12.2 67 3.4 E 7 13 4 7 - - 0.0
31/02:30pm 18.6 18.0 12.4 67 3.5 ESE 7 13 4 7 - - 0.0
31/02:00pm 18.2 17.2 12.4 69 3.2 ESE 9 13 5 7 - - 0.0
31/01:30pm 18.0 16.6 12.2 69 3.2 ESE 11 13 6 7 - - 0.0
31/01:00pm 17.4 15.2 12.1 71 2.9 SE 15 19 8 10 - - 0.0
31/12:30pm 17.3 14.4 12.2 72 2.8 SSE 19 20 10 11 - - 0.0
31/12:00pm 16.9 13.9 12.0 73 2.7 SSE 19 20 10 11 - - 0.0
31/11:30am 16.4 13.1 11.6 73 2.6 SSE 20 24 11 13 - - 0.0
31/11:00am 16.5 13.1 11.4 72 2.8 SSE 20 24 11 13 - - 0.0
31/10:30am 16.9 14.8 11.0 68 3.2 S 13 20 7 11 - - 0.0
31/10:00am 16.8 14.3 11.1 69 3.1 SSW 15 20 8 11 - - 0.0
31/09:30am 16.4 13.9 11.1 71 2.8 SSW 15 19 8 10 - - 0.0
31/09:00am 16.2 13.7 11.2 72 2.7 SSW 15 22 8 12 - - 3.8
31/08:30am 15.9 15.2 11.3 74 2.5 WNW 6 11 3 6 - - 3.8
31/08:00am 14.6 14.1 10.8 78 2.0 WSW 4 11 2 6 - - 3.8
31/07:30am 13.5 13.3 10.3 81 1.7 WNW 2 6 1 3 - - 3.8
31/07:00am 12.0 11.0 8.8 81 1.6 SW 4 7 2 4 - - 3.8
31/06:30am 12.1 10.1 8.8 80 1.6 W 9 11 5 6 - - 3.8
31/06:00am 13.5 12.3 9.7 78 1.9 WSW 6 9 3 5 - - 3.8
31/05:30am 14.4 11.4 10.8 79 1.9 SSW 17 20 9 11 - - 3.8
31/05:00am 14.1 12.6 10.7 80 1.8 SW 9 13 5 7 - - 3.8
31/04:30am 14.2 12.8 10.8 80 1.8 SW 9 17 5 9 - - 3.8
31/04:00am 14.0 12.2 10.8 81 1.7 SW 11 15 6 8 - - 3.8
31/03:30am 13.8 12.7 10.6 81 1.7 SW 7 11 4 6 - - 3.8
31/03:00am 14.0 11.0 10.8 81 1.7 SSW 17 22 9 12 - - 3.8
31/02:30am 14.3 10.9 11.1 81 1.7 SSW 20 28 11 15 - - 3.8
31/02:00am 14.2 11.0 11.2 82 1.6 SW 19 24 10 13 - - 3.8
31/01:30am 14.0 12.6 11.0 82 1.6 SW 9 13 5 7 - - 3.8
31/01:00am 14.3 11.4 11.1 81 1.7 SW 17 24 9 13 - - 3.8
31/12:30am 14.5 11.1 11.3 81 1.7 SSW 20 33 11 18 - - 3.8
31/12:00am 14.4 10.7 11.4 82 1.6 SSW 22 33 12 18 - - 3.8
 
Date/Time
EST
Temp
°C
App
Temp
°C
Dew
Point
Rel
Hum
%
Delta-T
°C
Wind Press
QNH
hPa
Press
MSL
hPa
Rain
since 9 am
mm
Dir
 
Spd
km/h
Gust
km/h
Spd
kts
Gust
kts
30/11:30pm 14.5 10.5 11.7 83 1.5 SSW 24 33 13 18 - - 3.8
30/11:00pm 14.3 10.2 11.6 84 1.4 SSW 24 32 13 17 - - 3.8
30/10:30pm 14.1 9.6 11.4 84 1.4 SSW 26 33 14 18 - - 3.8
30/10:00pm 14.3 9.9 11.8 85 1.3 SSW 26 33 14 18 - - 3.8
30/09:30pm 13.8 9.7 11.5 86 1.2 SSW 24 30 13 16 - - 3.8
30/09:00pm 13.9 9.3 11.2 84 1.4 SSW 26 33 14 18 - - 3.8
30/08:30pm 14.4 9.2 11.6 83 1.5 SSW 30 39 16 21 - - 3.8
30/08:00pm 14.0 8.7 11.2 83 1.5 SSW 30 41 16 22 - - 3.8
30/07:30pm 14.0 9.0 11.0 82 1.6 SSW 28 41 15 22 - - 3.8
30/07:00pm 13.8 8.5 11.1 84 1.4 SSW 30 41 16 22 - - 3.8
30/06:30pm 13.9 8.9 11.1 83 1.5 SSW 28 39 15 21 - - 3.8
30/06:00pm 14.2 10.5 11.5 84 1.4 SSW 22 33 12 18 - - 3.8
30/05:30pm 14.2 10.1 11.5 84 1.4 SSW 24 33 13 18 - - 3.8
30/05:00pm 14.5 10.1 11.7 83 1.5 SSW 26 37 14 20 - - 3.8
30/04:30pm 14.6 9.6 12.1 85 1.4 SSW 30 39 16 21 - - 3.8
30/04:00pm 14.5 9.1 12.2 86 1.2 SSW 32 43 17 23 - - 3.8
30/03:30pm 14.9 9.4 12.6 86 1.3 SSW 33 46 18 25 - - 3.8
30/03:00pm 14.6 9.1 12.6 88 1.1 SSW 33 46 18 25 - - 3.8
30/02:30pm 14.2 8.7 12.4 89 1.0 SSW 33 48 18 26 - - 3.8
30/02:00pm 14.6 10.1 12.6 88 1.1 SSW 28 35 15 19 - - 3.4
30/01:30pm 14.2 10.8 12.6 90 0.9 SSW 22 35 12 19 - - 3.2
30/01:01pm 14.4 9.9 12.6 89 1.0 SSW 28 46 15 25 - - 2.4
30/01:00pm 14.4 10.3 12.6 89 1.0 SSW 26 46 14 25 - - 2.2
30/12:30pm 13.8 10.7 12.2 90 0.9 SSW 20 33 11 18 - - 2.2
30/12:00pm 13.8 8.7 11.8 88 1.1 SSW 30 41 16 22 - - 0.6
30/11:30am 13.7 7.6 11.6 87 1.1 SSW 35 44 19 24 - - 0.0
30/11:00am 13.5 7.9 11.4 87 1.1 SSW 32 48 17 26 - - 0.0
30/10:53am 13.4 7.7 11.3 87 1.1 SW 32 52 17 28 - - 0.0
30/10:30am 13.8 8.0 11.5 86 1.2 SSW 33 46 18 25 - - 0.0
30/10:00am 13.2 6.9 11.1 87 1.1 SSW 35 50 19 27 - - 0.0
30/09:30am 12.7 5.5 10.4 86 1.2 SSW 39 54 21 29 - - 0.0
30/09:01am 12.2 6.0 9.9 86 1.2 SW 33 52 18 28 - - 0.0
30/09:00am 12.2 6.1 9.9 86 1.2 SW 32 48 17 26 - - 1.0
30/08:30am 12.1 5.8 9.8 86 1.2 SSW 33 43 18 23 - - 1.0
30/08:00am 11.9 5.2 9.6 86 1.2 SSW 35 52 19 28 - - 1.0
30/07:30am 11.8 5.4 9.5 86 1.2 SSW 33 50 18 27 - - 0.8
30/07:00am 11.7 4.9 9.1 84 1.3 SSW 35 52 19 28 - - 0.8
30/06:48am 11.9 4.7 9.1 83 1.4 SSW 37 57 20 31 - - 0.8
30/06:30am 11.9 5.1 9.3 84 1.3 SSW 35 48 19 26 - - 0.8
30/06:00am 12.2 5.4 9.2 82 1.5 SSW 35 52 19 28 - - 0.8
30/05:30am 12.5 5.7 9.1 80 1.7 SSW 35 46 19 25 - - 0.8
30/05:08am 12.4 5.5 8.9 79 1.8 SSW 35 54 19 29 - - 0.8
30/05:00am 12.4 4.3 8.7 78 1.8 SSW 41 59 22 32 - - 0.8
30/04:30am 12.6 6.0 8.5 76 2.0 SSW 33 52 18 28 - - 0.8
30/04:29am 12.7 6.2 8.8 77 2.0 SSW 33 52 18 28 - - 0.8
30/04:00am 12.6 5.2 8.3 75 2.1 SSW 37 50 20 27 - - 0.8
30/03:30am 12.9 6.3 8.4 74 2.2 SSW 33 50 18 27 - - 0.8
30/03:29am 12.9 6.5 8.4 74 2.2 SSW 32 50 17 27 - - 0.8
30/03:00am 13.7 6.3 8.5 71 2.6 SSW 37 56 20 30 - - 0.8
30/02:58am 13.6 6.5 8.2 70 2.7 SSW 35 56 19 30 - - 0.8
30/02:30am 13.7 6.7 8.3 70 2.7 SSW 35 48 19 26 - - 0.8
30/02:00am 13.8 6.7 8.0 68 2.9 SSW 35 48 19 26 - - 0.8
30/01:40am 13.8 6.6 7.6 66 3.1 SSW 35 56 19 30 - - 0.8
30/01:30am 13.8 6.5 7.3 65 3.2 SSW 35 50 19 27 - - 0.8
30/01:00am 13.8 6.9 7.3 65 3.2 SSW 33 48 18 26 - - 0.8
30/12:30am 13.8 6.6 7.6 66 3.1 SSW 35 50 19 27 - - 0.8
30/12:00am 13.8 6.6 7.6 66 3.1 SSW 35 46 19 25 - - 0.8
 
Date/Time
EST
Temp
°C
App
Temp
°C
Dew
Point
Rel
Hum
%
Delta-T
°C
Wind Press
QNH
hPa
Press
MSL
hPa
Rain
since 9 am
mm
Dir
 
Spd
km/h
Gust
km/h
Spd
kts
Gust
kts
29/11:30pm 13.9 7.1 7.9 67 3.0 SSW 33 48 18 26 - - 0.8
29/11:00pm 13.9 7.2 7.4 65 3.2 SSW 32 43 17 23 - - 0.8
29/10:30pm 13.8 7.0 6.7 62 3.4 SSW 32 44 17 24 - - 0.8
29/10:00pm 13.9 7.4 6.7 62 3.5 SSW 30 44 16 24 - - 0.8
29/09:30pm 14.0 7.1 7.1 63 3.4 SSW 33 44 18 24 - - 0.8
29/09:00pm 14.2 7.6 7.7 65 3.2 SSW 32 39 17 21 - - 0.8
29/08:30pm 14.2 7.8 8.4 68 2.9 SSW 32 43 17 23 - - 0.8
29/08:00pm 14.5 8.8 8.5 67 3.0 SSW 28 39 15 21 - - 0.8
29/07:30pm 15.0 7.0 9.1 68 3.0 S 41 52 22 28 - - 0.8
29/07:00pm 15.0 7.9 9.4 69 2.9 S 37 59 20 32 - - 0.8
29/06:56pm 14.5 8.3 9.5 72 2.6 SSW 32 52 17 28 - - 0.8
29/06:30pm 14.5 9.6 9.9 74 2.4 SSW 26 35 14 19 - - 0.8
29/06:00pm 15.0 8.7 9.8 71 2.7 SSW 33 46 18 25 - - 0.8
29/05:30pm 14.4 9.7 10.8 79 1.9 SSW 26 37 14 20 - - 0.8
29/05:00pm 14.1 8.6 10.5 79 1.9 SSW 30 41 16 22 - - 0.8
29/04:30pm 14.6 8.5 10.6 77 2.1 SSW 33 46 18 25 - - 0.8
29/04:00pm 15.0 9.5 10.4 74 2.4 SSW 30 37 16 20 - - 0.8
29/03:30pm 14.6 7.7 10.2 75 2.3 S 37 48 20 26 - - 0.8
29/03:00pm 15.0 8.1 10.4 74 2.4 S 37 50 20 27 - - 0.8
29/02:30pm 15.2 9.2 10.8 75 2.3 SSW 33 46 18 25 - - 0.8
29/02:00pm 15.0 9.3 11.0 77 2.1 SSW 32 44 17 24 - - 0.8
29/01:30pm 14.0 8.0 10.8 81 1.7 SSW 33 43 18 23 - - 0.8
29/01:04pm 15.3 10.3 11.1 76 2.2 SSW 28 48 15 26 - - 0.8
29/01:00pm 15.3 10.8 11.3 77 2.1 SSW 26 39 14 21 - - 0.8
29/12:30pm 14.8 9.4 11.0 78 2.0 SSW 30 39 16 21 - - 0.8
29/12:00pm 14.0 8.7 11.2 83 1.5 SSW 30 43 16 23 - - 0.8
29/11:30am 14.0 9.1 11.3 84 1.4 SSW 28 35 15 19 - - 0.6
29/11:00am 14.1 7.6 10.3 78 2.0 SSW 35 56 19 30 - - 0.0
29/10:30am 14.6 9.4 10.2 75 2.3 SSW 28 48 15 26 - - 0.0
29/10:26am 14.8 9.3 10.6 76 2.2 SSW 30 48 16 26 - - 0.0
29/10:00am 14.6 9.4 10.4 76 2.2 SSW 28 37 15 20 - - 0.0
29/09:30am 14.4 10.4 10.6 78 2.0 SSW 22 30 12 16 - - 0.0
29/09:00am 14.0 8.5 10.4 79 1.9 SSW 30 39 16 21 - - 0.6
29/08:50am 14.0 8.5 10.6 80 1.8 SSW 30 44 16 24 - - 0.6
29/08:30am 13.6 10.2 10.6 82 1.6 SSW 19 26 10 14 - - 0.6
29/08:00am 13.5 9.3 9.7 78 1.9 SSW 22 30 12 16 - - 0.6
29/07:30am 13.3 10.1 9.9 80 1.7 SSW 17 22 9 12 - - 0.6
29/07:00am 12.7 9.8 9.5 81 1.6 SW 15 24 8 13 - - 0.6
29/06:30am 12.8 9.1 9.6 81 1.6 SW 19 26 10 14 - - 0.6
29/06:00am 13.0 9.3 10.0 82 1.5 SSW 20 28 11 15 - - 0.6
29/05:30am 12.8 8.9 9.6 81 1.6 SW 20 28 11 15 - - 0.6
29/05:00am 12.9 9.0 9.5 80 1.7 SSW 20 28 11 15 - - 0.6
29/04:30am 12.6 10.0 9.4 81 1.6 SW 13 22 7 12 - - 0.6
29/04:00am 12.7 10.1 9.5 81 1.6 SW 13 20 7 11 - - 0.6
29/03:30am 13.1 9.8 9.7 80 1.7 SW 17 26 9 14 - - 0.6
29/03:00am 12.7 10.5 9.3 80 1.7 SW 11 15 6 8 - - 0.6
29/02:30am 12.7 10.5 9.2 79 1.8 SW 11 17 6 9 - - 0.6
29/02:00am 13.0 10.0 9.1 77 2.0 SW 15 19 8 10 - - 0.6
29/01:30am 13.4 9.7 9.6 78 1.9 SSW 19 28 10 15 - - 0.6
29/01:00am 13.0 10.0 9.4 79 1.8 SSW 15 24 8 13 - - 0.6
29/12:30am 12.5 10.6 9.0 79 1.8 SW 9 11 5 6 - - 0.6
29/12:00am 12.9 10.3 9.2 78 1.9 SW 13 17 7 9 - - 0.6
 
Date/Time
EST
Temp
°C
App
Temp
°C
Dew
Point
Rel
Hum
%
Delta-T
°C
Wind Press
QNH
hPa
Press
MSL
hPa
Rain
since 9 am
mm
Dir
 
Spd
km/h
Gust
km/h
Spd
kts
Gust
kts
28/11:30pm 12.9 10.3 9.2 78 1.9 SW 13 17 7 9 - - 0.6
28/11:00pm 13.2 11.0 9.3 77 2.0 SSW 11 15 6 8 - - 0.6
28/10:30pm 13.3 10.7 9.2 76 2.1 SSW 13 15 7 8 - - 0.6
28/10:00pm 13.3 10.7 9.2 76 2.1 SW 13 19 7 10 - - 0.6
28/09:30pm 13.5 11.3 9.2 75 2.2 SW 11 17 6 9 - - 0.6
28/09:00pm 13.7 10.4 9.4 75 2.2 SW 17 20 9 11 - - 0.6
28/08:30pm 14.1 11.5 9.3 73 2.5 SSW 13 30 7 16 - - 0.4
28/08:00pm 14.3 11.7 9.5 73 2.5 SSW 13 19 7 10 - - 0.4
28/07:30pm 13.5 11.1 8.8 73 2.4 SW 11 17 6 9 - - 0.4
28/07:00pm 14.3 11.6 9.1 71 2.6 SSW 13 19 7 10 - - 0.4
28/06:30pm 14.6 11.1 8.8 68 2.9 SSW 17 26 9 14 - - 0.4

Other Formats:

Comma delimited format used in spreadsheet applications
http://www.bom.gov.au/fwo/IDN60801/IDN60801.95749.axf

JavaScript Object Notation format (JSON) in row-major order
http://www.bom.gov.au/fwo/IDN60801/IDN60801.95749.json